sensor_id;sensor_type;location;lat;lon;timestamp;pressure;altitude;pressure_sealevel;temperature
1532;BMP280;759;53.170;8.210;2022-11-25T00:00:48;100204.19;;;5.07
1532;BMP280;759;53.170;8.210;2022-11-25T00:03:13;100190.28;;;5.14
1532;BMP280;759;53.170;8.210;2022-11-25T00:05:38;100193.59;;;5.07
1532;BMP280;759;53.170;8.210;2022-11-25T00:08:04;100194.81;;;5.13
1532;BMP280;759;53.170;8.210;2022-11-25T00:10:29;100187.13;;;5.05
1532;BMP280;759;53.170;8.210;2022-11-25T00:12:54;100186.31;;;5.00
1532;BMP280;759;53.170;8.210;2022-11-25T00:15:19;100188.56;;;5.02
1532;BMP280;759;53.170;8.210;2022-11-25T00:17:44;100189.41;;;5.06
1532;BMP280;759;53.170;8.210;2022-11-25T00:20:10;100183.34;;;5.06
1532;BMP280;759;53.170;8.210;2022-11-25T00:22:35;100184.81;;;5.03
1532;BMP280;759;53.170;8.210;2022-11-25T00:25:00;100182.94;;;5.04
1532;BMP280;759;53.170;8.210;2022-11-25T00:27:25;100181.03;;;5.04
1532;BMP280;759;53.170;8.210;2022-11-25T00:29:51;100180.31;;;5.07
1532;BMP280;759;53.170;8.210;2022-11-25T00:32:16;100188.56;;;5.02
1532;BMP280;759;53.170;8.210;2022-11-25T00:34:41;100191.63;;;5.04
1532;BMP280;759;53.170;8.210;2022-11-25T00:37:06;100185.63;;;5.07
1532;BMP280;759;53.170;8.210;2022-11-25T00:39:31;100180.28;;;5.04
1532;BMP280;759;53.170;8.210;2022-11-25T00:41:57;100178.03;;;5.06
1532;BMP280;759;53.170;8.210;2022-11-25T00:44:40;100178.81;;;5.06
1532;BMP280;759;53.170;8.210;2022-11-25T00:49:31;100172.66;;;5.02
1532;BMP280;759;53.170;8.210;2022-11-25T00:51:56;100170.38;;;4.97
1532;BMP280;759;53.170;8.210;2022-11-25T00:54:22;100175.66;;;4.97
1532;BMP280;759;53.170;8.210;2022-11-25T00:56:47;100162.00;;;4.98
1532;BMP280;759;53.170;8.210;2022-11-25T00:59:12;100164.31;;;5.00
1532;BMP280;759;53.170;8.210;2022-11-25T01:01:37;100165.91;;;5.05
1532;BMP280;759;53.170;8.210;2022-11-25T01:04:03;100165.13;;;5.04
1532;BMP280;759;53.170;8.210;2022-11-25T01:06:28;100156.06;;;5.05
1532;BMP280;759;53.170;8.210;2022-11-25T01:08:53;100156.06;;;5.05
1532;BMP280;759;53.170;8.210;2022-11-25T01:11:19;100155.34;;;5.08
1532;BMP280;759;53.170;8.210;2022-11-25T01:13:45;100162.13;;;5.06
1532;BMP280;759;53.170;8.210;2022-11-25T01:16:11;100158.03;;;5.12
1532;BMP280;759;53.170;8.210;2022-11-25T01:18:37;100167.19;;;5.14
1532;BMP280;759;53.170;8.210;2022-11-25T01:21:06;100164.06;;;5.09
1532;BMP280;759;53.170;8.210;2022-11-25T01:23:31;100160.34;;;5.13
1532;BMP280;759;53.170;8.210;2022-11-25T01:25:59;100157.69;;;5.13
1532;BMP280;759;53.170;8.210;2022-11-25T01:28:24;100158.41;;;5.10
1532;BMP280;759;53.170;8.210;2022-11-25T01:30:57;100162.97;;;5.13
1532;BMP280;759;53.170;8.210;2022-11-25T01:33:23;100153.91;;;5.14
1532;BMP280;759;53.170;8.210;2022-11-25T01:35:49;100151.63;;;5.13
1532;BMP280;759;53.170;8.210;2022-11-25T01:38:14;100150.88;;;5.12
1532;BMP280;759;53.170;8.210;2022-11-25T01:40:39;100156.16;;;5.12
1532;BMP280;759;53.170;8.210;2022-11-25T01:43:05;100157.28;;;5.11
1532;BMP280;759;53.170;8.210;2022-11-25T01:45:36;100152.47;;;5.20
1532;BMP280;759;53.170;8.210;2022-11-25T01:48:03;100161.56;;;5.23
1532;BMP280;759;53.170;8.210;2022-11-25T01:50:30;100155.50;;;5.22
1532;BMP280;759;53.170;8.210;2022-11-25T01:52:55;100155.22;;;5.28
1532;BMP280;759;53.170;8.210;2022-11-25T01:55:28;100157.16;;;5.34
1532;BMP280;759;53.170;8.210;2022-11-25T01:57:56;100154.94;;;5.40
1532;BMP280;759;53.170;8.210;2022-11-25T02:00:23;100149.75;;;5.51
1532;BMP280;759;53.170;8.210;2022-11-25T02:02:49;100145.31;;;5.58
1532;BMP280;759;53.170;8.210;2022-11-25T02:05:17;100147.97;;;5.58
1532;BMP280;759;53.170;8.210;2022-11-25T02:07:44;100148.75;;;5.62
1532;BMP280;759;53.170;8.210;2022-11-25T02:10:11;100141.56;;;5.67
1532;BMP280;759;53.170;8.210;2022-11-25T02:12:39;100141.97;;;5.69
1532;BMP280;759;53.170;8.210;2022-11-25T02:15:05;100140.16;;;5.73
1532;BMP280;759;53.170;8.210;2022-11-25T02:17:30;100133.31;;;5.72
1532;BMP280;759;53.170;8.210;2022-11-25T02:20:00;100140.53;;;5.75
1532;BMP280;759;53.170;8.210;2022-11-25T02:25:21;100137.84;;;5.71
1532;BMP280;759;53.170;8.210;2022-11-25T02:27:48;100131.81;;;5.74
1532;BMP280;759;53.170;8.210;2022-11-25T02:30:14;100138.69;;;5.79
1532;BMP280;759;53.170;8.210;2022-11-25T02:32:43;100141.72;;;5.81
1532;BMP280;759;53.170;8.210;2022-11-25T02:37:46;100136.50;;;5.88
1532;BMP280;759;53.170;8.210;2022-11-25T02:40:12;100130.41;;;5.88
1532;BMP280;759;53.170;8.210;2022-11-25T02:42:37;100135.75;;;5.91
1532;BMP280;759;53.170;8.210;2022-11-25T02:45:03;100130.44;;;5.91
1532;BMP280;759;53.170;8.210;2022-11-25T02:47:28;100131.97;;;5.92
1532;BMP280;759;53.170;8.210;2022-11-25T02:49:53;100136.94;;;5.94
1532;BMP280;759;53.170;8.210;2022-11-25T02:52:19;100139.53;;;5.90
1532;BMP280;759;53.170;8.210;2022-11-25T02:54:44;100128.19;;;5.93
1532;BMP280;759;53.170;8.210;2022-11-25T02:57:09;100131.63;;;5.97
1532;BMP280;759;53.170;8.210;2022-11-25T02:59:34;100138.06;;;5.96
1532;BMP280;759;53.170;8.210;2022-11-25T03:01:59;100133.53;;;6.00
1532;BMP280;759;53.170;8.210;2022-11-25T03:04:31;100143.44;;;6.03
1532;BMP280;759;53.170;8.210;2022-11-25T03:06:56;100141.22;;;6.09
1532;BMP280;759;53.170;8.210;2022-11-25T03:09:21;100144.28;;;6.15
1532;BMP280;759;53.170;8.210;2022-11-25T03:11:47;100138.19;;;6.11
1532;BMP280;759;53.170;8.210;2022-11-25T03:14:30;100143.50;;;6.11
1532;BMP280;759;53.170;8.210;2022-11-25T03:16:55;100140.50;;;6.16
1532;BMP280;759;53.170;8.210;2022-11-25T03:19:21;100139.38;;;6.17
1532;BMP280;759;53.170;8.210;2022-11-25T03:21:46;100137.84;;;6.16
1532;BMP280;759;53.170;8.210;2022-11-25T03:24:11;100138.97;;;6.15
1532;BMP280;759;53.170;8.210;2022-11-25T03:26:36;100140.50;;;6.16
1532;BMP280;759;53.170;8.210;2022-11-25T03:29:01;100131.38;;;6.13
1532;BMP280;759;53.170;8.210;2022-11-25T03:31:27;100126.50;;;6.19
1532;BMP280;759;53.170;8.210;2022-11-25T03:33:52;100129.94;;;6.23
1532;BMP280;759;53.170;8.210;2022-11-25T03:36:17;100134.09;;;6.20
1532;BMP280;759;53.170;8.210;2022-11-25T03:38:42;100140.88;;;6.18
1532;BMP280;759;53.170;8.210;2022-11-25T03:41:07;100126.13;;;6.24
1532;BMP280;759;53.170;8.210;2022-11-25T03:43:32;100131.44;;;6.24
1532;BMP280;759;53.170;8.210;2022-11-25T03:45:59;100129.94;;;6.27
1532;BMP280;759;53.170;8.210;2022-11-25T03:48:24;100134.13;;;6.28
1532;BMP280;759;53.170;8.210;2022-11-25T03:50:49;100134.50;;;6.30
1532;BMP280;759;53.170;8.210;2022-11-25T03:53:15;100135.69;;;6.32
1532;BMP280;759;53.170;8.210;2022-11-25T03:55:40;100128.47;;;6.33
1532;BMP280;759;53.170;8.210;2022-11-25T03:58:05;100135.72;;;6.36
1532;BMP280;759;53.170;8.210;2022-11-25T04:00:30;100137.59;;;6.39
1532;BMP280;759;53.170;8.210;2022-11-25T04:02:57;100138.38;;;6.39
1532;BMP280;759;53.170;8.210;2022-11-25T04:05:22;100133.06;;;6.39
1532;BMP280;759;53.170;8.210;2022-11-25T04:07:48;100137.59;;;6.39
1532;BMP280;759;53.170;8.210;2022-11-25T04:10:13;100138.41;;;6.43
1532;BMP280;759;53.170;8.210;2022-11-25T04:12:38;100139.50;;;6.38
1532;BMP280;759;53.170;8.210;2022-11-25T04:15:13;100145.59;;;6.42
1532;BMP280;759;53.170;8.210;2022-11-25T04:17:38;100132.00;;;6.48
1532;BMP280;759;53.170;8.210;2022-11-25T04:20:04;100132.34;;;6.46
1532;BMP280;759;53.170;8.210;2022-11-25T04:22:29;100136.84;;;6.38
1532;BMP280;759;53.170;8.210;2022-11-25T04:24:54;100138.38;;;6.39
1532;BMP280;759;53.170;8.210;2022-11-25T04:27:19;100133.84;;;6.40
1532;BMP280;759;53.170;8.210;2022-11-25T04:29:45;100125.47;;;6.34
1532;BMP280;759;53.170;8.210;2022-11-25T04:32:10;100129.97;;;6.30
1532;BMP280;759;53.170;8.210;2022-11-25T04:34:35;100136.84;;;6.35
1532;BMP280;759;53.170;8.210;2022-11-25T04:37:00;100133.44;;;6.38
1532;BMP280;759;53.170;8.210;2022-11-25T04:39:25;100133.81;;;6.36
1532;BMP280;759;53.170;8.210;2022-11-25T04:41:51;100134.94;;;6.35
1532;BMP280;759;53.170;8.210;2022-11-25T04:44:36;100143.31;;;6.37
1532;BMP280;759;53.170;8.210;2022-11-25T04:47:01;100139.50;;;6.35
1532;BMP280;759;53.170;8.210;2022-11-25T04:49:26;100148.97;;;6.32
1532;BMP280;759;53.170;8.210;2022-11-25T04:51:51;100136.06;;;6.31
1532;BMP280;759;53.170;8.210;2022-11-25T04:54:16;100144.44;;;6.36
1532;BMP280;759;53.170;8.210;2022-11-25T04:56:41;100142.16;;;6.35
1532;BMP280;759;53.170;8.210;2022-11-25T04:59:10;100146.72;;;6.34
1532;BMP280;759;53.170;8.210;2022-11-25T05:01:53;100157.00;;;6.39
1532;BMP280;759;53.170;8.210;2022-11-25T05:04:19;100160.44;;;6.43
1532;BMP280;759;53.170;8.210;2022-11-25T05:06:44;100152.06;;;6.41
1532;BMP280;759;53.170;8.210;2022-11-25T05:09:09;100149.03;;;6.43
1532;BMP280;759;53.170;8.210;2022-11-25T05:11:35;100150.56;;;6.44
1532;BMP280;759;53.170;8.210;2022-11-25T05:14:00;100149.03;;;6.43
1532;BMP280;759;53.170;8.210;2022-11-25T05:16:25;100145.22;;;6.40
1532;BMP280;759;53.170;8.210;2022-11-25T05:18:50;100157.78;;;6.43
1532;BMP280;759;53.170;8.210;2022-11-25T05:21:15;100150.19;;;6.45
1532;BMP280;759;53.170;8.210;2022-11-25T05:23:41;100154.34;;;6.43
1532;BMP280;759;53.170;8.210;2022-11-25T05:26:06;100154.34;;;6.43
1532;BMP280;759;53.170;8.210;2022-11-25T05:28:31;100149.06;;;6.47
1532;BMP280;759;53.170;8.210;2022-11-25T05:30:56;100164.66;;;6.52
1532;BMP280;759;53.170;8.210;2022-11-25T05:33:22;100158.19;;;6.45
1532;BMP280;759;53.170;8.210;2022-11-25T05:35:54;100157.06;;;6.54
1532;BMP280;759;53.170;8.210;2022-11-25T05:38:20;100157.06;;;6.54
1532;BMP280;759;53.170;8.210;2022-11-25T05:40:45;100152.09;;;6.49
1532;BMP280;759;53.170;8.210;2022-11-25T05:43:10;100154.41;;;6.50
1532;BMP280;759;53.170;8.210;2022-11-25T05:45:37;100158.97;;;6.50
1532;BMP280;759;53.170;8.210;2022-11-25T05:48:02;100151.34;;;6.48
1532;BMP280;759;53.170;8.210;2022-11-25T05:50:27;100150.59;;;6.48
1532;BMP280;759;53.170;8.210;2022-11-25T05:52:52;100153.63;;;6.46
1532;BMP280;759;53.170;8.210;2022-11-25T05:55:17;100160.50;;;6.51
1532;BMP280;759;53.170;8.210;2022-11-25T05:57:43;100156.66;;;6.52
1532;BMP280;759;53.170;8.210;2022-11-25T06:00:08;100161.22;;;6.48
1532;BMP280;759;53.170;8.210;2022-11-25T06:02:33;100164.25;;;6.46
1532;BMP280;759;53.170;8.210;2022-11-25T06:04:58;100158.97;;;6.50
1532;BMP280;759;53.170;8.210;2022-11-25T06:07:24;100163.53;;;6.49
1532;BMP280;759;53.170;8.210;2022-11-25T06:09:49;100157.78;;;6.43
1532;BMP280;759;53.170;8.210;2022-11-25T06:12:14;100166.09;;;6.42
1532;BMP280;759;53.170;8.210;2022-11-25T06:14:39;100159.69;;;6.47
1532;BMP280;759;53.170;8.210;2022-11-25T06:17:04;100162.75;;;6.49
1532;BMP280;759;53.170;8.210;2022-11-25T06:19:30;100152.50;;;6.47
1532;BMP280;759;53.170;8.210;2022-11-25T06:21:55;100158.19;;;6.45
1532;BMP280;759;53.170;8.210;2022-11-25T06:24:20;100149.81;;;6.43
1532;BMP280;759;53.170;8.210;2022-11-25T06:26:45;100158.22;;;6.49
1532;BMP280;759;53.170;8.210;2022-11-25T06:29:10;100157.41;;;6.49
1532;BMP280;759;53.170;8.210;2022-11-25T06:31:36;100154.34;;;6.39
1532;BMP280;759;53.170;8.210;2022-11-25T06:34:01;100158.19;;;6.45
1532;BMP280;759;53.170;8.210;2022-11-25T06:36:26;100169.91;;;6.44
1532;BMP280;759;53.170;8.210;2022-11-25T06:38:52;100164.59;;;6.44
1532;BMP280;759;53.170;8.210;2022-11-25T06:41:18;100171.09;;;6.47
1532;BMP280;759;53.170;8.210;2022-11-25T06:43:43;100173.72;;;6.43
1532;BMP280;759;53.170;8.210;2022-11-25T06:46:10;100171.06;;;6.43
1532;BMP280;759;53.170;8.210;2022-11-25T06:48:35;100169.97;;;6.48
1532;BMP280;759;53.170;8.210;2022-11-25T06:51:02;100172.63;;;6.48
1532;BMP280;759;53.170;8.210;2022-11-25T06:53:27;100177.16;;;6.48
1532;BMP280;759;53.170;8.210;2022-11-25T06:56:12;100174.91;;;6.50
1532;BMP280;759;53.170;8.210;2022-11-25T06:58:38;100180.22;;;6.50
1532;BMP280;759;53.170;8.210;2022-11-25T07:01:13;100187.06;;;6.54
1532;BMP280;759;53.170;8.210;2022-11-25T07:03:40;100187.09;;;6.51
1532;BMP280;759;53.170;8.210;2022-11-25T07:06:06;100190.09;;;6.53
1532;BMP280;759;53.170;8.210;2022-11-25T07:08:31;100192.75;;;6.53
1532;BMP280;759;53.170;8.210;2022-11-25T07:11:04;100201.94;;;6.59
1532;BMP280;759;53.170;8.210;2022-11-25T07:13:30;100211.00;;;6.58
1532;BMP280;759;53.170;8.210;2022-11-25T07:15:56;100216.38;;;6.61
1532;BMP280;759;53.170;8.210;2022-11-25T07:18:23;100219.03;;;6.61
1532;BMP280;759;53.170;8.210;2022-11-25T07:20:48;100222.16;;;6.74
1532;BMP280;759;53.170;8.210;2022-11-25T07:23:14;100232.78;;;6.74
1532;BMP280;759;53.170;8.210;2022-11-25T07:25:39;100234.28;;;6.72
1532;BMP280;759;53.170;8.210;2022-11-25T07:28:04;100240.38;;;6.72
1532;BMP280;759;53.170;8.210;2022-11-25T07:30:29;100241.53;;;6.75
1532;BMP280;759;53.170;8.210;2022-11-25T07:32:54;100251.03;;;6.79
1532;BMP280;759;53.170;8.210;2022-11-25T07:35:20;100253.69;;;6.79
1532;BMP280;759;53.170;8.210;2022-11-25T07:37:45;100252.56;;;6.77
1532;BMP280;759;53.170;8.210;2022-11-25T07:40:10;100257.47;;;6.78
1532;BMP280;759;53.170;8.210;2022-11-25T07:42:35;100256.38;;;6.79
1532;BMP280;759;53.170;8.210;2022-11-25T07:45:01;100270.06;;;6.81
1532;BMP280;759;53.170;8.210;2022-11-25T07:47:26;100277.63;;;6.79
1532;BMP280;759;53.170;8.210;2022-11-25T07:49:51;100274.22;;;6.82
1532;BMP280;759;53.170;8.210;2022-11-25T07:52:16;100276.56;;;6.91
1532;BMP280;759;53.170;8.210;2022-11-25T07:54:42;100268.59;;;6.88
1532;BMP280;759;53.170;8.210;2022-11-25T07:57:07;100275.41;;;6.85
1532;BMP280;759;53.170;8.210;2022-11-25T07:59:32;100280.75;;;6.92
1532;BMP280;759;53.170;8.210;2022-11-25T08:01:57;100287.97;;;6.92
1532;BMP280;759;53.170;8.210;2022-11-25T08:04:23;100289.13;;;6.91
1532;BMP280;759;53.170;8.210;2022-11-25T08:06:49;100291.41;;;6.96
1532;BMP280;759;53.170;8.210;2022-11-25T08:09:15;100290.63;;;6.92
1532;BMP280;759;53.170;8.210;2022-11-25T08:11:43;100295.25;;;6.98
1532;BMP280;759;53.170;8.210;2022-11-25T08:14:08;100289.09;;;6.94
1532;BMP280;759;53.170;8.210;2022-11-25T08:19:18;100299.00;;;6.94
1532;BMP280;759;53.170;8.210;2022-11-25T08:21:43;100297.47;;;6.93
1532;BMP280;759;53.170;8.210;2022-11-25T08:24:12;100295.97;;;6.95
1532;BMP280;759;53.170;8.210;2022-11-25T08:26:38;100306.22;;;6.93
1532;BMP280;759;53.170;8.210;2022-11-25T08:29:04;100299.38;;;6.96
1532;BMP280;759;53.170;8.210;2022-11-25T08:31:31;100304.38;;;7.01
1532;BMP280;759;53.170;8.210;2022-11-25T08:33:56;100310.47;;;7.01
1532;BMP280;759;53.170;8.210;2022-11-25T08:36:22;100309.75;;;7.08
1532;BMP280;759;53.170;8.210;2022-11-25T08:38:48;100323.06;;;7.12
1532;BMP280;759;53.170;8.210;2022-11-25T08:41:15;100323.03;;;7.08
1532;BMP280;759;53.170;8.210;2022-11-25T08:43:40;100314.31;;;7.11
1532;BMP280;759;53.170;8.210;2022-11-25T08:46:06;100325.75;;;7.15
1532;BMP280;759;53.170;8.210;2022-11-25T08:48:32;100320.44;;;7.19
1532;BMP280;759;53.170;8.210;2022-11-25T08:50:57;100315.50;;;7.21
1532;BMP280;759;53.170;8.210;2022-11-25T08:53:22;100322.03;;;7.27
1532;BMP280;759;53.170;8.210;2022-11-25T08:55:48;100317.47;;;7.31
1532;BMP280;759;53.170;8.210;2022-11-25T08:58:13;100315.22;;;7.37
1532;BMP280;759;53.170;8.210;2022-11-25T09:00:39;100319.38;;;7.31
1532;BMP280;759;53.170;8.210;2022-11-25T09:03:04;100320.94;;;7.39
1532;BMP280;759;53.170;8.210;2022-11-25T09:05:30;100319.44;;;7.45
1532;BMP280;759;53.170;8.210;2022-11-25T09:08:00;100322.88;;;7.49
1532;BMP280;759;53.170;8.210;2022-11-25T09:10:25;100321.38;;;7.48
1532;BMP280;759;53.170;8.210;2022-11-25T09:12:50;100322.19;;;7.59
1532;BMP280;759;53.170;8.210;2022-11-25T09:15:15;100338.13;;;7.56
1532;BMP280;759;53.170;8.210;2022-11-25T09:17:41;100330.94;;;7.60
1532;BMP280;759;53.170;8.210;2022-11-25T09:20:06;100332.06;;;7.62
1532;BMP280;759;53.170;8.210;2022-11-25T09:22:31;100336.66;;;7.69
1532;BMP280;759;53.170;8.210;2022-11-25T09:24:57;100341.25;;;7.68
1532;BMP280;759;53.170;8.210;2022-11-25T09:27:23;100352.63;;;7.65
1532;BMP280;759;53.170;8.210;2022-11-25T09:29:48;100356.09;;;7.73
1532;BMP280;759;53.170;8.210;2022-11-25T09:32:13;100354.94;;;7.70
1532;BMP280;759;53.170;8.210;2022-11-25T09:34:38;100351.88;;;7.68
1532;BMP280;759;53.170;8.210;2022-11-25T09:37:03;100347.72;;;7.71
1532;BMP280;759;53.170;8.210;2022-11-25T09:39:29;100352.66;;;7.76
1532;BMP280;759;53.170;8.210;2022-11-25T09:42:01;100353.44;;;7.77
1532;BMP280;759;53.170;8.210;2022-11-25T09:45:00;100361.06;;;7.85
1532;BMP280;759;53.170;8.210;2022-11-25T09:55:23;100368.38;;;8.06
1532;BMP280;759;53.170;8.210;2022-11-25T10:00:17;100381.72;;;8.21
1532;BMP280;759;53.170;8.210;2022-11-25T10:02:44;100382.91;;;8.27
1532;BMP280;759;53.170;8.210;2022-11-25T10:05:19;100380.22;;;8.30
1532;BMP280;759;53.170;8.210;2022-11-25T10:07:46;100379.47;;;8.33
1532;BMP280;759;53.170;8.210;2022-11-25T10:10:17;100385.22;;;8.39
1532;BMP280;759;53.170;8.210;2022-11-25T10:12:43;100388.63;;;8.43
1532;BMP280;759;53.170;8.210;2022-11-25T10:15:17;100391.31;;;8.47
1532;BMP280;759;53.170;8.210;2022-11-25T10:17:47;100394.75;;;8.47
1532;BMP280;759;53.170;8.210;2022-11-25T10:20:27;100397.41;;;8.51
1532;BMP280;759;53.170;8.210;2022-11-25T10:22:59;100397.81;;;8.60
1532;BMP280;759;53.170;8.210;2022-11-25T10:25:26;100401.59;;;8.55
1532;BMP280;759;53.170;8.210;2022-11-25T10:28:28;100409.97;;;8.58
1532;BMP280;759;53.170;8.210;2022-11-25T10:33:20;100408.84;;;8.62
1532;BMP280;759;53.170;8.210;2022-11-25T10:35:47;100403.91;;;8.68
1532;BMP280;759;53.170;8.210;2022-11-25T10:38:22;100415.72;;;8.67
1532;BMP280;759;53.170;8.210;2022-11-25T10:40:48;100409.63;;;8.77
1532;BMP280;759;53.170;8.210;2022-11-25T10:43:14;100409.25;;;8.79
1532;BMP280;759;53.170;8.210;2022-11-25T10:45:43;100411.53;;;8.80
1532;BMP280;759;53.170;8.210;2022-11-25T10:48:21;100416.13;;;8.90
1532;BMP280;759;53.170;8.210;2022-11-25T10:51:24;100420.69;;;8.97
1532;BMP280;759;53.170;8.210;2022-11-25T10:53:40;100424.09;;;9.08
1532;BMP280;759;53.170;8.210;2022-11-25T10:56:10;100433.63;;;9.13
1532;BMP280;759;53.170;8.210;2022-11-25T10:58:36;100428.31;;;9.13
1532;BMP280;759;53.170;8.210;2022-11-25T11:03:30;100435.91;;;9.22
1532;BMP280;759;53.170;8.210;2022-11-25T11:05:55;100436.66;;;9.26
1532;BMP280;759;53.170;8.210;2022-11-25T11:08:22;100442.78;;;9.26
1532;BMP280;759;53.170;8.210;2022-11-25T11:11:07;100446.19;;;9.37
1532;BMP280;759;53.170;8.210;2022-11-25T11:13:33;100452.66;;;9.40
1532;BMP280;759;53.170;8.210;2022-11-25T11:15:58;100451.13;;;9.43
1532;BMP280;759;53.170;8.210;2022-11-25T11:20:52;100454.19;;;9.45
1532;BMP280;759;53.170;8.210;2022-11-25T11:23:18;100451.91;;;9.47
1532;BMP280;759;53.170;8.210;2022-11-25T11:25:53;100457.97;;;9.51
1532;BMP280;759;53.170;8.210;2022-11-25T11:31:21;100463.31;;;9.51
1532;BMP280;759;53.170;8.210;2022-11-25T11:33:57;100464.84;;;9.55
1532;BMP280;759;53.170;8.210;2022-11-25T11:46:52;100479.97;;;9.94
1532;BMP280;759;53.170;8.210;2022-11-25T11:49:43;100478.50;;;9.93
1532;BMP280;759;53.170;8.210;2022-11-25T11:52:13;100479.19;;;10.04
1532;BMP280;759;53.170;8.210;2022-11-25T11:54:43;100487.94;;;10.12
1532;BMP280;759;53.170;8.210;2022-11-25T11:59:55;100491.72;;;10.25
1532;BMP280;759;53.170;8.210;2022-11-25T12:03:09;100492.44;;;10.37
1532;BMP280;759;53.170;8.210;2022-11-25T12:05:12;100494.75;;;10.35
1532;BMP280;759;53.170;8.210;2022-11-25T12:10:35;100497.06;;;10.22
1532;BMP280;759;53.170;8.210;2022-11-25T12:18:49;100497.44;;;10.28
1532;BMP280;759;53.170;8.210;2022-11-25T12:23:53;100508.44;;;10.44
1532;BMP280;759;53.170;8.210;2022-11-25T12:26:26;100514.13;;;10.53
1532;BMP280;759;53.170;8.210;2022-11-25T12:28:54;100513.38;;;10.49
1532;BMP280;759;53.170;8.210;2022-11-25T12:31:22;100516.81;;;10.46
1532;BMP280;759;53.170;8.210;2022-11-25T12:33:52;100507.66;;;10.40
1532;BMP280;759;53.170;8.210;2022-11-25T12:36:41;100511.13;;;10.40
1532;BMP280;759;53.170;8.210;2022-11-25T12:46:58;100519.88;;;10.48
1532;BMP280;759;53.170;8.210;2022-11-25T12:49:27;100521.38;;;10.49
1532;BMP280;759;53.170;8.210;2022-11-25T12:54:46;100529.38;;;10.56
1532;BMP280;759;53.170;8.210;2022-11-25T13:07:25;100537.72;;;10.69
1532;BMP280;759;53.170;8.210;2022-11-25T13:10:13;100532.38;;;10.65
1532;BMP280;759;53.170;8.210;2022-11-25T13:13:05;100534.66;;;10.71
1532;BMP280;759;53.170;8.210;2022-11-25T13:15:34;100539.97;;;10.74
1532;BMP280;759;53.170;8.210;2022-11-25T13:18:08;100539.22;;;10.74
1532;BMP280;759;53.170;8.210;2022-11-25T13:20:35;100536.91;;;10.72
1532;BMP280;759;53.170;8.210;2022-11-25T13:25:35;100541.22;;;10.55
1532;BMP280;759;53.170;8.210;2022-11-25T13:28:01;100546.56;;;10.59
1532;BMP280;759;53.170;8.210;2022-11-25T13:35:35;100553.41;;;10.67
1532;BMP280;759;53.170;8.210;2022-11-25T13:38:05;100561.00;;;10.72
1532;BMP280;759;53.170;8.210;2022-11-25T13:40:37;100562.19;;;10.67
1532;BMP280;759;53.170;8.210;2022-11-25T13:43:03;100570.22;;;10.67
1532;BMP280;759;53.170;8.210;2022-11-25T13:47:53;100579.72;;;10.72
1532;BMP280;759;53.170;8.210;2022-11-25T13:52:47;100588.91;;;10.71
1532;BMP280;759;53.170;8.210;2022-11-25T13:57:42;100599.28;;;10.65
1532;BMP280;759;53.170;8.210;2022-11-25T14:02:43;100598.97;;;10.53
1532;BMP280;759;53.170;8.210;2022-11-25T14:05:15;100595.16;;;10.46
1532;BMP280;759;53.170;8.210;2022-11-25T14:07:55;100592.88;;;10.45
1532;BMP280;759;53.170;8.210;2022-11-25T14:25:52;100589.91;;;10.18
1532;BMP280;759;53.170;8.210;2022-11-25T14:30:56;100596.78;;;10.12
1532;BMP280;759;53.170;8.210;2022-11-25T14:33:28;100599.50;;;10.08
1532;BMP280;759;53.170;8.210;2022-11-25T14:35:57;100602.53;;;10.03
1532;BMP280;759;53.170;8.210;2022-11-25T14:38:25;100612.88;;;10.01
1532;BMP280;759;53.170;8.210;2022-11-25T14:40:54;100614.41;;;9.91
1532;BMP280;759;53.170;8.210;2022-11-25T14:43:23;100623.19;;;9.92
1532;BMP280;759;53.170;8.210;2022-11-25T14:46:07;100617.47;;;9.82
1532;BMP280;759;53.170;8.210;2022-11-25T14:48:33;100615.56;;;9.72
1532;BMP280;759;53.170;8.210;2022-11-25T14:50:59;100619.75;;;9.70
1532;BMP280;759;53.170;8.210;2022-11-25T14:53:25;100621.28;;;9.67
1532;BMP280;759;53.170;8.210;2022-11-25T14:55:50;100620.88;;;9.58
1532;BMP280;759;53.170;8.210;2022-11-25T14:58:16;100638.06;;;9.43
1532;BMP280;759;53.170;8.210;2022-11-25T15:00:58;100638.06;;;9.46
1532;BMP280;759;53.170;8.210;2022-11-25T15:03:24;100637.31;;;9.42
1532;BMP280;759;53.170;8.210;2022-11-25T15:05:53;100650.28;;;9.36
1532;BMP280;759;53.170;8.210;2022-11-25T15:08:19;100649.91;;;9.38
1532;BMP280;759;53.170;8.210;2022-11-25T15:10:54;100655.22;;;9.34
1532;BMP280;759;53.170;8.210;2022-11-25T15:15:51;100662.44;;;9.20
1532;BMP280;759;53.170;8.210;2022-11-25T15:18:18;100648.69;;;9.14
1532;BMP280;759;53.170;8.210;2022-11-25T15:20:45;100667.31;;;9.03
1532;BMP280;759;53.170;8.210;2022-11-25T15:23:11;100663.53;;;9.01
1532;BMP280;759;53.170;8.210;2022-11-25T15:25:49;100676.47;;;8.99
1532;BMP280;759;53.170;8.210;2022-11-25T15:28:15;100673.34;;;8.86
1532;BMP280;759;53.170;8.210;2022-11-25T15:30:40;100684.44;;;8.81
1532;BMP280;759;53.170;8.210;2022-11-25T15:33:07;100690.47;;;8.74
1532;BMP280;759;53.170;8.210;2022-11-25T15:35:33;100697.31;;;8.68
1532;BMP280;759;53.170;8.210;2022-11-25T15:37:58;100694.91;;;8.55
1532;BMP280;759;53.170;8.210;2022-11-25T15:40:37;100691.41;;;8.44
1532;BMP280;759;53.170;8.210;2022-11-25T15:43:06;100696.75;;;8.37
1532;BMP280;759;53.170;8.210;2022-11-25T15:45:44;100697.06;;;8.32
1532;BMP280;759;53.170;8.210;2022-11-25T15:50:46;100701.22;;;8.29
1532;BMP280;759;53.170;8.210;2022-11-25T15:53:17;100717.22;;;8.29
1532;BMP280;759;53.170;8.210;2022-11-25T15:55:43;100709.63;;;8.28
1532;BMP280;759;53.170;8.210;2022-11-25T15:58:21;100726.34;;;8.25
1532;BMP280;759;53.170;8.210;2022-11-25T16:01:06;100730.50;;;8.19
1532;BMP280;759;53.170;8.210;2022-11-25T16:03:42;100737.31;;;8.20
1532;BMP280;759;53.170;8.210;2022-11-25T16:06:24;100732.00;;;8.16
1532;BMP280;759;53.170;8.210;2022-11-25T16:11:20;100748.28;;;8.07
1532;BMP280;759;53.170;8.210;2022-11-25T16:13:47;100750.53;;;8.05
1532;BMP280;759;53.170;8.210;2022-11-25T16:16:14;100755.88;;;8.05
1532;BMP280;759;53.170;8.210;2022-11-25T16:18:46;100760.84;;;8.07
1532;BMP280;759;53.170;8.210;2022-11-25T16:21:14;100765.41;;;8.10
1532;BMP280;759;53.170;8.210;2022-11-25T16:23:44;100765.03;;;8.11
1532;BMP280;759;53.170;8.210;2022-11-25T16:28:36;100762.13;;;8.24
1532;BMP280;759;53.170;8.210;2022-11-25T16:31:01;100770.19;;;8.34
1532;BMP280;759;53.170;8.210;2022-11-25T16:33:27;100769.50;;;8.41
1532;BMP280;759;53.170;8.210;2022-11-25T16:35:52;100778.34;;;8.49
1532;BMP280;759;53.170;8.210;2022-11-25T16:38:17;100778.75;;;8.54
1532;BMP280;759;53.170;8.210;2022-11-25T16:40:43;100780.25;;;8.55
1532;BMP280;759;53.170;8.210;2022-11-25T16:43:22;100793.28;;;8.61
1532;BMP280;759;53.170;8.210;2022-11-25T16:45:48;100790.97;;;8.63
1532;BMP280;759;53.170;8.210;2022-11-25T16:48:15;100790.25;;;8.66
1532;BMP280;759;53.170;8.210;2022-11-25T16:50:44;100798.97;;;8.63